Time;durP1;ratioP1;P1;durP2;ratioP2;P2;SDS_P1;SDS_P2;PMS_P1;PMS_P2;Temp;Humidity;BMP_temperature;BMP_pressure;BME280_temperature;BME280_humidity;BME280_pressure;Samples;Min_cycle;Max_cycle;Signal;HPM_P1;HPM_P2
2024/02/26 00:01:45;;;;;;;30.43;9.83;;;;;;;;;;6173680;23;20173;-91
2024/02/26 00:04:53;;;;;;;54.97;11.77;;;;;;;;;;6175015;23;20472;-91
2024/02/26 00:14:45;;;;;;;107.83;12.97;;;;;;;;;;6177507;23;20207;-91
2024/02/26 00:17:51;;;;;;;127.93;12.60;;;;;;;;;;6179007;23;20203;-92
2024/02/26 00:48:32;;;;;;;46.00;10.23;;;;;;;;;;6207369;23;20169;-91
2024/02/26 00:51:39;;;;;;;65.33;10.80;;;;;;;;;;6189290;23;20168;-91
2024/02/26 00:54:45;;;;;;;73.63;11.40;;;;;;;;;;6179661;23;20211;-91
2024/02/26 00:57:50;;;;;;;64.27;10.73;;;;;;;;;;6179904;23;20164;-91
2024/02/26 01:00:58;;;;;;;71.73;10.83;;;;;;;;;;6182835;23;20156;-91
2024/02/26 01:04:04;;;;;;;108.70;11.70;;;;;;;;;;6180250;23;20171;-92
2024/02/26 01:07:10;;;;;;;50.60;10.10;;;;;;;;;;6181067;23;20159;-91
2024/02/26 01:10:15;;;;;;;145.90;12.30;;;;;;;;;;6178501;23;20215;-91
2024/02/26 01:13:20;;;;;;;54.47;10.80;;;;;;;;;;6179832;23;20203;-91
2024/02/26 01:16:28;;;;;;;48.87;10.03;;;;;;;;;;6180557;23;20232;-91
2024/02/26 01:19:35;;;;;;;44.00;9.50;;;;;;;;;;6181446;23;20238;-92
2024/02/26 01:22:40;;;;;;;53.07;9.77;;;;;;;;;;6179335;23;20175;-91
2024/02/26 01:25:45;;;;;;;46.57;9.73;;;;;;;;;;6180135;23;20163;-91
2024/02/26 01:28:50;;;;;;;62.03;9.90;;;;;;;;;;6180450;23;20156;-91
2024/02/26 01:31:56;;;;;;;42.17;9.30;;;;;;;;;;6179193;23;20199;-92
2024/02/26 01:35:03;;;;;;;80.67;9.47;;;;;;;;;;6180705;23;20168;-92
2024/02/26 01:38:08;;;;;;;97.47;10.50;;;;;;;;;;6179689;23;20164;-90
2024/02/26 01:41:15;;;;;;;95.27;10.97;;;;;;;;;;6181547;23;20155;-91
2024/02/26 01:44:19;;;;;;;67.27;10.37;;;;;;;;;;6181494;23;20175;-91
2024/02/26 01:47:24;;;;;;;59.20;9.23;;;;;;;;;;6179542;23;20187;-91
2024/02/26 01:50:34;;;;;;;58.10;9.30;;;;;;;;;;6179689;23;20175;-91
2024/02/26 01:53:39;;;;;;;80.87;10.63;;;;;;;;;;6178680;23;20323;-92
2024/02/26 01:56:44;;;;;;;38.40;9.57;;;;;;;;;;6181011;23;20161;-91
2024/02/26 01:59:50;;;;;;;47.37;9.40;;;;;;;;;;6179649;23;20172;-90
2024/02/26 02:02:55;;;;;;;108.30;11.13;;;;;;;;;;6180141;23;20237;-91
2024/02/26 02:06:02;;;;;;;97.10;10.33;;;;;;;;;;6178681;23;20594;-91
2024/02/26 02:09:07;;;;;;;68.33;9.93;;;;;;;;;;6179046;23;20167;-90
2024/02/26 02:12:16;;;;;;;73.00;9.57;;;;;;;;;;6178081;23;20183;-92
2024/02/26 02:15:22;;;;;;;69.23;10.07;;;;;;;;;;6178827;23;20167;-92
2024/02/26 02:18:27;;;;;;;61.20;9.43;;;;;;;;;;6179989;23;20622;-91
2024/02/26 02:21:33;;;;;;;83.17;9.77;;;;;;;;;;6179247;23;20259;-91
2024/02/26 02:24:39;;;;;;;44.40;10.20;;;;;;;;;;6179262;23;20168;-90
2024/02/26 02:27:44;;;;;;;40.57;10.17;;;;;;;;;;6179515;23;20167;-91
2024/02/26 02:30:50;;;;;;;50.80;10.37;;;;;;;;;;6179211;23;20171;-91
2024/02/26 02:33:55;;;;;;;27.63;9.23;;;;;;;;;;6177692;23;20199;-91
2024/02/26 02:37:02;;;;;;;37.20;9.90;;;;;;;;;;6177226;23;20169;-91
2024/02/26 02:40:07;;;;;;;20.73;8.57;;;;;;;;;;6179570;23;20249;-90
2024/02/26 02:43:13;;;;;;;20.27;7.73;;;;;;;;;;6177665;23;20172;-91
2024/02/26 02:46:18;;;;;;;21.93;7.80;;;;;;;;;;6179913;23;20167;-91
2024/02/26 02:49:23;;;;;;;25.80;8.63;;;;;;;;;;6180476;23;20187;-90
2024/02/26 02:52:34;;;;;;;30.70;8.50;;;;;;;;;;6179283;23;20194;-91
2024/02/26 02:55:39;;;;;;;67.23;10.20;;;;;;;;;;6179998;23;20167;-91
2024/02/26 02:58:44;;;;;;;94.43;9.93;;;;;;;;;;6179801;23;20254;-90
2024/02/26 03:01:49;;;;;;;126.43;10.57;;;;;;;;;;6181391;23;20163;-91
2024/02/26 03:04:54;;;;;;;36.50;8.73;;;;;;;;;;6181233;23;20651;-90
2024/02/26 03:08:01;;;;;;;37.53;9.40;;;;;;;;;;6181674;23;20171;-91
2024/02/26 03:11:06;;;;;;;29.13;9.07;;;;;;;;;;6179324;23;20164;-91
2024/02/26 03:14:11;;;;;;;62.47;8.80;;;;;;;;;;6179238;23;20199;-91
2024/02/26 03:17:16;;;;;;;85.57;10.73;;;;;;;;;;6179877;23;20233;-92
2024/02/26 03:20:21;;;;;;;104.70;10.17;;;;;;;;;;6178825;23;20239;-91
2024/02/26 03:23:29;;;;;;;88.30;10.47;;;;;;;;;;6180136;23;20501;-91
2024/02/26 03:26:34;;;;;;;86.80;10.70;;;;;;;;;;6179951;23;20171;-91
2024/02/26 03:29:40;;;;;;;47.07;9.67;;;;;;;;;;6180136;23;20470;-91
2024/02/26 03:32:47;;;;;;;77.70;9.00;;;;;;;;;;6179602;23;20203;-91
2024/02/26 03:35:52;;;;;;;67.67;8.97;;;;;;;;;;6179002;23;20171;-91
2024/02/26 03:38:59;;;;;;;39.60;8.30;;;;;;;;;;6179933;23;20243;-91
2024/02/26 03:42:04;;;;;;;92.83;9.20;;;;;;;;;;6178640;23;20202;-91
2024/02/26 03:45:10;;;;;;;56.37;8.20;;;;;;;;;;6178721;23;20172;-92
2024/02/26 03:48:15;;;;;;;93.37;9.40;;;;;;;;;;6177256;23;20186;-92
2024/02/26 03:51:19;;;;;;;28.90;7.20;;;;;;;;;;6178549;23;20144;-90
2024/02/26 03:54:26;;;;;;;15.67;7.00;;;;;;;;;;6178778;23;20198;-91
2024/02/26 03:57:32;;;;;;;32.27;7.23;;;;;;;;;;6179188;23;20167;-91
2024/02/26 04:00:37;;;;;;;27.27;7.20;;;;;;;;;;6178507;23;20167;-92
2024/02/26 04:03:43;;;;;;;20.97;7.37;;;;;;;;;;6178131;23;20180;-90
2024/02/26 04:06:48;;;;;;;15.63;6.40;;;;;;;;;;6178094;23;20172;-91
2024/02/26 04:09:55;;;;;;;19.93;7.00;;;;;;;;;;6179146;23;20180;-92
2024/02/26 04:13:00;;;;;;;33.93;7.17;;;;;;;;;;6177783;23;20195;-92
2024/02/26 04:16:05;;;;;;;44.43;7.77;;;;;;;;;;6177649;23;20168;-92
2024/02/26 04:19:10;;;;;;;32.30;7.70;;;;;;;;;;6177547;23;20180;-92
2024/02/26 04:22:16;;;;;;;39.97;6.70;;;;;;;;;;6177457;23;20167;-91
2024/02/26 04:25:22;;;;;;;40.97;6.97;;;;;;;;;;6196720;23;20175;-93
2024/02/26 04:28:28;;;;;;;29.73;7.03;;;;;;;;;;6179686;23;20167;-91
2024/02/26 04:31:34;;;;;;;39.37;7.40;;;;;;;;;;6180894;23;20168;-93
2024/02/26 04:34:39;;;;;;;35.80;7.40;;;;;;;;;;6178290;23;20280;-91
2024/02/26 04:37:44;;;;;;;25.23;7.47;;;;;;;;;;6178021;23;20213;-91
2024/02/26 04:40:50;;;;;;;29.37;6.70;;;;;;;;;;6178272;23;20568;-92
2024/02/26 04:43:55;;;;;;;30.47;6.57;;;;;;;;;;6178737;23;20211;-90
2024/02/26 04:47:01;;;;;;;25.17;6.00;;;;;;;;;;6178872;23;20526;-92
2024/02/26 04:50:07;;;;;;;24.20;6.40;;;;;;;;;;6178054;23;20493;-92
2024/02/26 04:53:12;;;;;;;40.10;7.13;;;;;;;;;;6177274;23;20207;-91
2024/02/26 04:56:18;;;;;;;15.30;5.50;;;;;;;;;;6178541;23;20217;-90
2024/02/26 04:59:23;;;;;;;38.87;6.93;;;;;;;;;;6178352;23;20168;-92
2024/02/26 05:02:30;;;;;;;21.07;6.80;;;;;;;;;;6176987;23;20183;-91
2024/02/26 05:05:35;;;;;;;77.60;8.20;;;;;;;;;;6178607;23;20682;-91
2024/02/26 05:08:40;;;;;;;28.63;7.83;;;;;;;;;;6175269;23;20168;-92
2024/02/26 05:11:47;;;;;;;20.77;7.13;;;;;;;;;;6178315;23;20172;-92
2024/02/26 05:14:52;;;;;;;23.23;7.10;;;;;;;;;;6177807;23;20179;-91
2024/02/26 05:17:57;;;;;;;33.13;7.17;;;;;;;;;;6178788;23;20171;-92
2024/02/26 05:21:03;;;;;;;17.53;7.43;;;;;;;;;;6179259;23;20184;-91
2024/02/26 05:24:08;;;;;;;18.97;7.97;;;;;;;;;;6178743;23;20223;-92
2024/02/26 05:27:15;;;;;;;22.30;7.33;;;;;;;;;;6177598;23;20172;-91
2024/02/26 05:30:20;;;;;;;18.00;7.07;;;;;;;;;;6178120;23;20515;-92
2024/02/26 05:33:25;;;;;;;31.57;7.27;;;;;;;;;;6178338;23;20203;-90
2024/02/26 05:36:33;;;;;;;25.87;7.37;;;;;;;;;;6178411;23;20167;-90
2024/02/26 05:39:40;;;;;;;28.93;7.20;;;;;;;;;;6178649;23;20172;-91
2024/02/26 05:42:48;;;;;;;25.20;7.43;;;;;;;;;;6177345;23;20168;-91
2024/02/26 05:45:54;;;;;;;21.83;7.10;;;;;;;;;;6177149;23;20175;-91
2024/02/26 05:48:59;;;;;;;22.47;7.13;;;;;;;;;;6181095;23;20188;-91
2024/02/26 05:52:04;;;;;;;23.20;6.70;;;;;;;;;;6178462;23;20235;-92
2024/02/26 05:55:10;;;;;;;31.50;7.37;;;;;;;;;;6177518;23;20291;-91
2024/02/26 05:58:16;;;;;;;19.07;6.87;;;;;;;;;;6176885;23;20216;-90
2024/02/26 06:01:22;;;;;;;15.87;6.17;;;;;;;;;;6178909;23;20171;-93
2024/02/26 06:04:27;;;;;;;17.20;6.47;;;;;;;;;;6182888;23;20186;-93
2024/02/26 06:07:32;;;;;;;36.67;6.53;;;;;;;;;;6176497;23;20222;-92
2024/02/26 06:10:39;;;;;;;44.00;6.80;;;;;;;;;;6178889;23;20220;-90
2024/02/26 06:13:45;;;;;;;21.47;8.03;;;;;;;;;;6176431;23;20207;-92
2024/02/26 06:16:51;;;;;;;28.87;7.77;;;;;;;;;;6180746;23;20230;-92
2024/02/26 06:19:56;;;;;;;51.43;6.87;;;;;;;;;;6182148;23;20280;-91
2024/02/26 06:23:01;;;;;;;15.90;6.30;;;;;;;;;;6181237;23;20291;-92
2024/02/26 06:26:06;;;;;;;18.67;6.23;;;;;;;;;;6179444;23;20530;-92
2024/02/26 06:29:12;;;;;;;22.47;6.70;;;;;;;;;;6180167;23;20623;-91
2024/02/26 06:32:22;;;;;;;20.73;6.30;;;;;;;;;;6180040;23;20164;-91
2024/02/26 06:35:29;;;;;;;29.27;7.13;;;;;;;;;;6179600;23;20219;-90
2024/02/26 06:38:34;;;;;;;16.10;6.63;;;;;;;;;;6181742;23;20160;-91
2024/02/26 06:41:39;;;;;;;27.30;6.03;;;;;;;;;;6178462;23;20172;-92
2024/02/26 06:44:45;;;;;;;16.00;5.90;;;;;;;;;;6181008;23;20172;-91
2024/02/26 06:47:51;;;;;;;56.07;7.23;;;;;;;;;;6178658;23;20215;-91
2024/02/26 06:50:56;;;;;;;21.13;6.47;;;;;;;;;;6197029;23;20201;-90
2024/02/26 06:54:03;;;;;;;19.43;6.13;;;;;;;;;;6181117;23;20221;-91
2024/02/26 06:57:08;;;;;;;21.00;6.50;;;;;;;;;;6180763;23;20177;-90
2024/02/26 07:00:17;;;;;;;19.30;6.30;;;;;;;;;;6180946;23;20180;-92
2024/02/26 07:03:25;;;;;;;16.77;5.73;;;;;;;;;;6180828;23;20192;-91
2024/02/26 07:06:31;;;;;;;18.70;5.87;;;;;;;;;;6182574;23;20201;-90
2024/02/26 07:09:37;;;;;;;28.53;7.40;;;;;;;;;;6181779;23;20200;-92
2024/02/26 07:12:43;;;;;;;20.37;6.23;;;;;;;;;;6178313;23;20247;-91
2024/02/26 07:15:50;;;;;;;18.67;6.50;;;;;;;;;;6180188;23;20188;-91
2024/02/26 07:18:56;;;;;;;14.97;5.90;;;;;;;;;;6180781;23;20372;-91
2024/02/26 07:22:02;;;;;;;13.50;5.63;;;;;;;;;;6180085;23;20168;-91
2024/02/26 07:25:12;;;;;;;15.57;5.53;;;;;;;;;;6181413;23;20211;-91
2024/02/26 07:28:18;;;;;;;8.97;5.00;;;;;;;;;;6185785;23;20244;-90
2024/02/26 07:31:25;;;;;;;19.07;5.23;;;;;;;;;;6185236;23;20542;-90
2024/02/26 07:34:30;;;;;;;13.53;5.53;;;;;;;;;;6184693;23;20266;-91
2024/02/26 07:37:36;;;;;;;12.13;5.90;;;;;;;;;;6181542;23;20180;-90
2024/02/26 07:40:42;;;;;;;9.03;5.20;;;;;;;;;;6185076;23;20250;-92
2024/02/26 07:43:47;;;;;;;9.43;5.20;;;;;;;;;;6184368;23;20171;-90
2024/02/26 07:46:53;;;;;;;11.30;4.50;;;;;;;;;;6182241;23;20307;-93
2024/02/26 07:49:59;;;;;;;15.33;5.23;;;;;;;;;;6182485;23;20253;-92
2024/02/26 07:53:04;;;;;;;18.53;6.27;;;;;;;;;;6183670;23;20172;-91
2024/02/26 07:56:14;;;;;;;25.43;10.20;;;;;;;;;;6183021;23;20154;-90
2024/02/26 07:59:19;;;;;;;20.67;9.47;;;;;;;;;;6181147;23;20176;-90
2024/02/26 08:02:25;;;;;;;11.63;5.13;;;;;;;;;;6183091;23;20299;-91
2024/02/26 08:05:31;;;;;;;12.43;4.80;;;;;;;;;;6183533;23;20216;-91
2024/02/26 08:08:36;;;;;;;13.40;5.83;;;;;;;;;;6180063;23;20168;-91
2024/02/26 08:11:41;;;;;;;11.87;5.63;;;;;;;;;;6178756;23;20171;-89
2024/02/26 08:14:47;;;;;;;10.63;5.00;;;;;;;;;;6179315;23;20518;-90
2024/02/26 08:17:54;;;;;;;9.90;4.57;;;;;;;;;;6180729;23;20228;-90
2024/02/26 08:20:59;;;;;;;8.90;4.90;;;;;;;;;;6182637;23;20179;-91
2024/02/26 08:24:05;;;;;;;10.37;5.10;;;;;;;;;;6180889;23;20443;-90
2024/02/26 08:27:11;;;;;;;17.43;5.73;;;;;;;;;;6183515;23;20172;-91
2024/02/26 08:30:18;;;;;;;12.17;6.40;;;;;;;;;;6189133;23;20203;-91
2024/02/26 08:33:26;;;;;;;13.13;5.33;;;;;;;;;;6191661;23;20163;-91
2024/02/26 08:43:21;;;;;;;10.27;5.90;;;;;;;;;;6209135;23;20192;-91
2024/02/26 08:46:27;;;;;;;11.07;5.83;;;;;;;;;;6191958;23;20238;-90
2024/02/26 08:49:34;;;;;;;11.50;5.47;;;;;;;;;;6191593;23;20247;-93
2024/02/26 08:52:40;;;;;;;10.67;5.17;;;;;;;;;;6189365;23;20243;-91
2024/02/26 11:04:53;;;;;;;11.98;3.72;;;;;;;;;;6238150;22;20216;-92
2024/02/26 16:45:52;;;;;;;8.43;3.88;;;;;;;;;;6189413;22;20408;-91
2024/02/26 16:49:07;;;;;;;13.30;3.85;;;;;;;;;;6221950;23;20194;-91
2024/02/26 16:52:15;;;;;;;10.00;4.05;;;;;;;;;;6195879;23;20215;-90
2024/02/26 17:54:48;;;;;;;37.42;14.48;;;;;;;;;;6194458;22;20199;-91
2024/02/26 17:57:54;;;;;;;32.22;12.98;;;;;;;;;;6218317;23;20171;-91
2024/02/26 18:01:00;;;;;;;28.85;10.77;;;;;;;;;;6219665;23;20166;-91
2024/02/26 18:04:08;;;;;;;28.90;10.88;;;;;;;;;;6239273;23;20182;-93
2024/02/26 18:14:36;;;;;;;21.40;9.23;;;;;;;;;;6239477;23;20186;-91
2024/02/26 18:17:42;;;;;;;21.45;8.40;;;;;;;;;;6220877;23;20163;-91
2024/02/26 18:20:49;;;;;;;26.38;9.23;;;;;;;;;;6221645;23;20167;-92
2024/02/26 18:23:59;;;;;;;23.63;9.27;;;;;;;;;;6223058;23;20155;-90
2024/02/26 18:27:12;;;;;;;27.35;10.80;;;;;;;;;;6221907;23;20167;-91
2024/02/26 18:33:54;;;;;;;26.48;10.70;;;;;;;;;;6220377;23;20171;-91
2024/02/26 18:37:03;;;;;;;27.67;10.80;;;;;;;;;;6219610;23;20150;-92
2024/02/26 18:40:14;;;;;;;27.35;10.00;;;;;;;;;;6218500;23;20191;-94
2024/02/26 18:43:22;;;;;;;31.30;11.98;;;;;;;;;;6220943;23;20175;-89
2024/02/26 19:12:58;;;;;;;21.67;9.27;;;;;;;;;;6198393;22;20212;-92
2024/02/26 19:16:04;;;;;;;27.02;9.30;;;;;;;;;;6219590;23;20234;-91
2024/02/26 19:19:09;;;;;;;23.75;9.77;;;;;;;;;;6220460;23;20166;-92
2024/02/26 19:22:16;;;;;;;24.10;9.35;;;;;;;;;;6221962;23;20210;-91
2024/02/26 19:25:22;;;;;;;21.52;8.75;;;;;;;;;;6221276;23;20159;-91
2024/02/26 19:31:50;;;;;;;18.25;8.85;;;;;;;;;;6222507;23;20167;-90
2024/02/26 19:34:57;;;;;;;16.55;8.07;;;;;;;;;;6221865;23;20244;-91
2024/02/26 23:41:32;;;;;;;11.37;4.33;;;;;;;;;;6156080;23;20213;-91
2024/02/26 23:44:38;;;;;;;12.13;4.80;;;;;;;;;;6177611;23;20172;-92
2024/02/26 23:47:42;;;;;;;8.40;4.03;;;;;;;;;;6177279;23;20179;-91
2024/02/26 23:50:48;;;;;;;14.50;4.57;;;;;;;;;;6180532;23;20176;-92
2024/02/26 23:53:52;;;;;;;9.83;4.90;;;;;;;;;;6177510;23;20171;-92
2024/02/26 23:56:59;;;;;;;8.80;4.33;;;;;;;;;;6177186;23;20172;-91
